createdAt,value
2023-01-17T00:02:19.090Z,17.10
2023-01-17T00:05:05.724Z,17.50
2023-01-17T00:07:52.623Z,8.60
2023-01-17T00:10:23.529Z,8.52
2023-01-17T00:12:56.898Z,9.50
2023-01-17T00:15:26.524Z,9.68
2023-01-17T00:17:55.290Z,16.13
2023-01-17T00:20:43.939Z,8.95
2023-01-17T00:23:39.746Z,7.28
2023-01-17T00:26:13.803Z,8.88
2023-01-17T00:28:43.442Z,8.32
2023-01-17T00:31:12.725Z,10.43
2023-01-17T00:33:41.196Z,8.32
2023-01-17T00:36:09.641Z,11.00
2023-01-17T00:38:39.534Z,8.65
2023-01-17T00:41:10.008Z,10.20
2023-01-17T00:43:56.211Z,13.05
2023-01-17T00:46:42.565Z,13.30
2023-01-17T00:49:29.419Z,10.25
2023-01-17T00:52:16.060Z,8.90
2023-01-17T00:55:02.708Z,10.68
2023-01-17T00:57:49.369Z,11.65
2023-01-17T01:00:38.655Z,12.40
2023-01-17T01:03:30.064Z,9.02
2023-01-17T01:06:16.915Z,8.20
2023-01-17T01:09:03.353Z,8.15
2023-01-17T01:11:49.996Z,11.43
2023-01-17T01:14:36.885Z,8.90
2023-01-17T01:17:23.717Z,8.73
2023-01-17T01:20:10.464Z,11.02
2023-01-17T01:22:56.990Z,11.73
2023-01-17T01:25:43.359Z,7.78
2023-01-17T01:28:32.061Z,9.75
2023-01-17T01:31:22.286Z,9.63
2023-01-17T01:33:53.913Z,10.35
2023-01-17T01:36:21.979Z,12.20
2023-01-17T01:38:50.511Z,10.60
2023-01-17T01:41:18.780Z,10.95
2023-01-17T01:43:52.155Z,10.43
2023-01-17T01:46:39.391Z,9.10
2023-01-17T01:49:19.551Z,8.52
2023-01-17T01:51:56.109Z,8.55
2023-01-17T01:54:28.791Z,9.30
2023-01-17T01:56:59.457Z,8.77
2023-01-17T01:59:28.184Z,10.38
2023-01-17T02:01:58.429Z,8.95
2023-01-17T02:04:28.624Z,9.32
2023-01-17T02:07:04.219Z,11.35
2023-01-17T02:09:32.350Z,8.68
2023-01-17T02:12:00.709Z,7.30
2023-01-17T02:14:28.965Z,10.68
2023-01-17T02:17:40.229Z,6.88
2023-01-17T02:20:35.583Z,6.55
2023-01-17T02:23:24.492Z,12.77
2023-01-17T02:26:10.876Z,7.38
2023-01-17T02:29:18.151Z,9.10
2023-01-17T02:31:58.442Z,11.88
2023-01-17T02:34:51.859Z,8.88
2023-01-17T02:37:27.208Z,9.70
2023-01-17T02:40:30.529Z,9.40
2023-01-17T02:43:05.827Z,8.85
2023-01-17T02:45:33.748Z,9.52
2023-01-17T02:48:01.662Z,9.52
2023-01-17T02:51:00.368Z,8.70
2023-01-17T02:53:31.294Z,8.38
2023-01-17T02:59:52.283Z,5.47
2023-01-17T03:02:46.413Z,7.00
2023-01-17T03:05:21.344Z,5.97
2023-01-17T03:07:51.345Z,6.47
2023-01-17T03:10:20.637Z,5.95
2023-01-17T03:15:17.852Z,6.18
2023-01-17T03:17:50.195Z,8.65
2023-01-17T03:20:22.577Z,5.80
2023-01-17T03:22:50.803Z,8.00
2023-01-17T03:25:21.701Z,11.73
2023-01-17T03:27:49.706Z,8.20
2023-01-17T03:30:18.045Z,6.93
2023-01-17T03:32:45.986Z,7.90
2023-01-17T03:35:13.960Z,7.65
2023-01-17T03:37:43.276Z,7.90
2023-01-17T03:40:11.528Z,8.07
2023-01-17T03:42:40.074Z,7.15
2023-01-17T03:45:08.559Z,8.05
2023-01-17T03:47:36.724Z,6.65
2023-01-17T03:50:05.740Z,6.20
2023-01-17T03:52:33.775Z,6.88
2023-01-17T03:55:02.848Z,6.18
2023-01-17T03:57:30.655Z,5.97
2023-01-17T03:59:58.710Z,6.60
2023-01-17T04:02:26.614Z,6.85
2023-01-17T04:04:54.894Z,6.35
2023-01-17T04:07:23.263Z,8.18
2023-01-17T04:09:51.323Z,8.40
2023-01-17T04:12:19.352Z,8.13
2023-01-17T04:14:48.387Z,10.13
2023-01-17T04:17:18.970Z,6.95
2023-01-17T04:19:47.718Z,7.65
2023-01-17T04:22:15.722Z,7.78
2023-01-17T04:24:43.818Z,13.25
2023-01-17T04:27:14.472Z,6.30
2023-01-17T04:29:42.622Z,6.93
2023-01-17T04:32:10.688Z,7.40
2023-01-17T04:34:38.686Z,7.72
2023-01-17T04:37:06.644Z,7.75
2023-01-17T04:39:34.539Z,7.43
2023-01-17T04:42:03.183Z,5.72
2023-01-17T04:44:31.103Z,7.97
2023-01-17T04:46:59.039Z,11.30
2023-01-17T04:49:26.827Z,8.75
2023-01-17T04:51:54.866Z,8.00
2023-01-17T04:54:22.854Z,7.93
2023-01-17T04:56:50.675Z,8.25
2023-01-17T04:59:18.737Z,7.85
2023-01-17T05:01:49.691Z,9.02
2023-01-17T05:04:17.839Z,10.82
2023-01-17T05:06:45.801Z,10.00
2023-01-17T05:09:13.744Z,9.38
2023-01-17T05:11:41.656Z,9.70
2023-01-17T05:14:11.007Z,7.43
2023-01-17T05:16:38.956Z,7.68
2023-01-17T05:19:06.952Z,10.35
2023-01-17T05:21:35.018Z,10.07
2023-01-17T05:24:02.922Z,8.95
2023-01-17T05:26:31.144Z,8.60
2023-01-17T05:28:59.018Z,11.63
2023-01-17T05:31:27.069Z,7.65
2023-01-17T05:33:55.018Z,8.30
2023-01-17T05:36:22.846Z,8.40
2023-01-17T05:38:50.766Z,7.28
2023-01-17T05:41:18.677Z,6.82
2023-01-17T05:43:46.873Z,9.07
2023-01-17T05:46:16.429Z,8.93
2023-01-17T05:48:44.470Z,9.73
2023-01-17T05:51:12.454Z,8.77
2023-01-17T05:53:40.471Z,7.75
2023-01-17T05:56:08.421Z,10.40
2023-01-17T05:58:36.480Z,9.05
2023-01-17T06:01:04.428Z,10.30
2023-01-17T06:03:32.364Z,9.55
2023-01-17T06:06:00.336Z,8.48
2023-01-17T06:08:28.363Z,7.93
2023-01-17T06:10:59.664Z,11.65
2023-01-17T06:13:27.655Z,10.30
2023-01-17T06:15:57.924Z,8.82
2023-01-17T06:18:26.027Z,10.73
2023-01-17T06:20:55.349Z,15.60
2023-01-17T06:23:24.125Z,14.95
2023-01-17T06:25:52.343Z,9.57
2023-01-17T06:28:22.944Z,7.97
2023-01-17T06:30:53.725Z,11.43
2023-01-17T06:33:21.696Z,10.05
2023-01-17T06:35:51.537Z,6.97
2023-01-17T06:38:20.150Z,7.60
2023-01-17T06:40:48.292Z,7.50
2023-01-17T06:43:16.436Z,7.68
2023-01-17T06:45:44.380Z,9.70
2023-01-17T06:48:12.408Z,8.05
2023-01-17T06:50:40.440Z,8.10
2023-01-17T06:53:08.385Z,9.30
2023-01-17T06:55:39.806Z,7.18
2023-01-17T06:58:09.569Z,7.35
2023-01-17T07:00:40.284Z,6.57
2023-01-17T07:03:21.020Z,10.50
2023-01-17T07:05:49.464Z,7.53
2023-01-17T07:08:18.697Z,8.73
2023-01-17T07:10:48.898Z,9.55
2023-01-17T07:13:17.065Z,16.42
2023-01-17T07:15:44.992Z,11.32
2023-01-17T07:18:13.358Z,9.48
2023-01-17T07:20:44.214Z,9.40
2023-01-17T07:23:12.557Z,9.30
2023-01-17T07:25:40.580Z,19.15
2023-01-17T07:28:09.165Z,22.00
2023-01-17T07:30:37.068Z,23.60
2023-01-17T07:33:05.740Z,17.20
2023-01-17T07:35:34.415Z,13.40
2023-01-17T07:38:02.475Z,10.13
2023-01-17T07:40:30.817Z,11.77
2023-01-17T07:43:02.621Z,8.10
2023-01-17T07:45:32.436Z,7.18
2023-01-17T07:48:00.658Z,7.97
2023-01-17T07:50:28.541Z,6.68
2023-01-17T07:52:56.659Z,7.32
2023-01-17T07:55:24.572Z,6.35
2023-01-17T07:57:52.491Z,6.03
2023-01-17T08:00:21.617Z,11.25
2023-01-17T08:02:49.991Z,11.70
2023-01-17T08:05:18.062Z,10.20
2023-01-17T08:07:45.935Z,9.23
2023-01-17T08:10:18.196Z,7.75
2023-01-17T08:12:48.264Z,6.53
2023-01-17T08:15:18.022Z,6.03
2023-01-17T08:17:49.947Z,7.70
2023-01-17T08:20:18.117Z,6.00
2023-01-17T08:22:46.145Z,8.60
2023-01-17T08:25:14.200Z,8.90
2023-01-17T08:27:42.149Z,6.95
2023-01-17T08:30:10.927Z,5.90
2023-01-17T08:32:41.507Z,6.03
2023-01-17T08:35:10.487Z,5.53
2023-01-17T08:37:39.320Z,5.72
2023-01-17T08:40:09.028Z,20.05
2023-01-17T08:42:40.410Z,7.35
2023-01-17T08:45:10.273Z,5.57
2023-01-17T08:47:38.373Z,22.95
2023-01-17T08:50:07.227Z,15.63
2023-01-17T08:52:35.253Z,7.50
2023-01-17T08:55:03.869Z,20.48
2023-01-17T08:57:33.083Z,8.82
2023-01-17T09:04:56.397Z,14.32
2023-01-17T09:07:25.394Z,14.48
2023-01-17T09:09:53.866Z,10.45
2023-01-17T09:12:22.709Z,25.02
2023-01-17T09:19:47.718Z,14.70
2023-01-17T09:22:15.956Z,16.42
2023-01-17T09:24:44.336Z,11.32
2023-01-17T09:27:12.263Z,10.52
2023-01-17T09:29:40.260Z,21.10
2023-01-17T09:32:08.219Z,41.53
2023-01-17T09:34:36.140Z,25.13
2023-01-17T09:37:04.362Z,16.58
2023-01-17T09:39:32.227Z,12.07
2023-01-17T09:42:00.117Z,13.20
2023-01-17T09:44:35.867Z,13.82
2023-01-17T09:47:16.455Z,16.38
2023-01-17T09:49:48.060Z,9.73
2023-01-17T09:52:21.301Z,12.63
2023-01-17T09:54:51.102Z,11.02
2023-01-17T09:57:46.807Z,13.50
2023-01-17T10:00:49.888Z,22.52
2023-01-17T10:03:26.875Z,25.48
2023-01-17T10:06:27.975Z,19.13
2023-01-17T10:09:40.410Z,14.57
2023-01-17T10:12:18.896Z,20.83
2023-01-17T10:15:07.409Z,14.05
2023-01-17T10:18:06.541Z,25.15
2023-01-17T10:20:49.809Z,22.40
2023-01-17T10:23:31.034Z,11.23
2023-01-17T10:26:05.146Z,13.13
2023-01-17T10:28:41.041Z,12.32
2023-01-17T10:31:16.838Z,11.27
2023-01-17T10:34:12.171Z,10.38
2023-01-17T10:36:44.943Z,15.10
2023-01-17T10:39:24.642Z,8.48
2023-01-17T10:41:56.799Z,10.75
2023-01-17T10:44:59.585Z,10.00
2023-01-17T10:47:33.465Z,25.42
2023-01-17T10:50:05.404Z,21.17
2023-01-17T10:52:53.138Z,25.60
2023-01-17T10:55:39.210Z,13.95
2023-01-17T10:58:12.696Z,23.23
2023-01-17T11:00:45.612Z,28.65
2023-01-17T11:03:16.494Z,28.80
2023-01-17T11:05:44.654Z,25.33
2023-01-17T11:08:15.839Z,22.73
2023-01-17T11:10:47.487Z,13.48
2023-01-17T11:13:24.118Z,33.33
2023-01-17T11:15:57.895Z,20.27
2023-01-17T11:18:29.876Z,25.60
2023-01-17T11:21:16.185Z,45.75
2023-01-17T11:23:47.073Z,27.45
2023-01-17T11:26:26.406Z,31.20
2023-01-17T11:29:26.143Z,12.18
2023-01-17T11:31:58.793Z,7.32
2023-01-17T11:34:32.279Z,8.43
2023-01-17T11:37:18.679Z,7.40
2023-01-17T11:39:50.313Z,7.85
2023-01-17T11:42:33.886Z,10.90
2023-01-17T11:45:38.005Z,10.82
2023-01-17T11:48:09.014Z,8.90
2023-01-17T11:50:46.772Z,7.05
2023-01-17T11:53:28.239Z,5.18
2023-01-17T11:56:06.219Z,6.00
2023-01-17T11:58:41.407Z,3.10
2023-01-17T12:01:23.211Z,5.07
2023-01-17T12:04:24.438Z,8.50
2023-01-17T12:07:04.514Z,13.02
2023-01-17T12:09:48.135Z,10.13
2023-01-17T12:12:42.548Z,2.88
2023-01-17T12:15:22.669Z,2.70
2023-01-17T12:18:12.149Z,3.45
2023-01-17T12:20:41.726Z,25.05
2023-01-17T12:23:34.042Z,8.57
2023-01-17T12:26:07.962Z,5.53
2023-01-17T12:29:04.842Z,16.48
2023-01-17T12:31:54.337Z,7.40
2023-01-17T12:34:32.376Z,9.05
2023-01-17T12:37:18.275Z,6.22
2023-01-17T12:40:18.142Z,19.70
2023-01-17T12:43:26.890Z,14.60
2023-01-17T12:45:54.940Z,19.50
2023-01-17T12:48:29.578Z,16.92
2023-01-17T12:51:05.274Z,18.40
2023-01-17T12:53:51.870Z,17.30
2023-01-17T12:56:29.941Z,18.23
2023-01-17T12:59:12.800Z,21.80
2023-01-17T13:01:57.743Z,5.68
2023-01-17T13:04:57.737Z,7.63
2023-01-17T13:08:08.879Z,6.82
2023-01-17T13:11:04.271Z,7.65
2023-01-17T13:13:33.443Z,12.82
2023-01-17T13:16:11.992Z,5.80
2023-01-17T13:18:46.653Z,6.65
2023-01-17T13:21:32.331Z,5.53
2023-01-17T13:24:02.305Z,7.05
2023-01-17T13:26:36.805Z,12.07
2023-01-17T13:29:43.489Z,9.93
2023-01-17T13:32:23.479Z,8.38
2023-01-17T13:35:12.587Z,8.70
2023-01-17T13:37:59.083Z,5.68
2023-01-17T13:40:52.963Z,8.18
2023-01-17T13:43:27.882Z,7.03
2023-01-17T13:46:00.036Z,7.15
2023-01-17T13:48:41.118Z,8.00
2023-01-17T13:51:10.446Z,8.50
2023-01-17T13:53:41.231Z,7.18
2023-01-17T13:56:29.588Z,8.05
2023-01-17T13:59:03.439Z,6.22
2023-01-17T14:01:38.754Z,6.78
2023-01-17T14:04:12.138Z,9.57
2023-01-17T14:06:44.799Z,7.25
2023-01-17T14:09:27.844Z,6.35
2023-01-17T14:12:24.874Z,8.63
2023-01-17T14:14:55.931Z,7.18
2023-01-17T14:17:25.836Z,10.65
2023-01-17T14:19:58.401Z,6.30
2023-01-17T14:22:41.826Z,7.53
2023-01-17T14:25:15.196Z,8.05
2023-01-17T14:27:43.216Z,7.35
2023-01-17T14:30:17.908Z,5.70
2023-01-17T14:33:09.079Z,7.45
2023-01-17T14:35:49.739Z,10.00
2023-01-17T14:38:23.925Z,5.97
2023-01-17T14:40:55.825Z,7.60
2023-01-17T14:43:26.842Z,10.68
2023-01-17T14:46:04.401Z,8.15
2023-01-17T14:48:32.489Z,8.55
2023-01-17T14:51:01.393Z,8.70
2023-01-17T14:53:33.610Z,9.85
2023-01-17T14:56:17.116Z,7.43
2023-01-17T14:58:46.852Z,6.05
2023-01-17T15:01:20.236Z,7.32
2023-01-17T15:03:58.562Z,5.75
2023-01-17T15:06:46.822Z,5.78
2023-01-17T15:09:23.008Z,13.25
2023-01-17T15:11:53.594Z,17.08
2023-01-17T15:14:38.146Z,18.45
2023-01-17T15:17:26.637Z,16.65
2023-01-17T15:19:59.845Z,15.30
2023-01-17T15:22:30.060Z,6.75
2023-01-17T15:27:41.845Z,13.32
2023-01-17T15:52:27.444Z,14.95
2023-01-17T15:57:56.169Z,7.97
2023-01-17T16:00:38.005Z,10.73
2023-01-17T16:03:25.876Z,8.57
2023-01-17T16:05:57.204Z,8.75
2023-01-17T16:08:40.318Z,9.20
2023-01-17T16:11:11.916Z,8.18
2023-01-17T16:13:42.646Z,9.52
2023-01-17T16:16:12.254Z,6.70
2023-01-17T16:18:41.493Z,5.97
2023-01-17T16:21:17.430Z,5.55
2023-01-17T16:23:46.527Z,5.32
2023-01-17T16:26:15.840Z,7.07
2023-01-17T16:28:44.247Z,8.95
2023-01-17T16:31:12.725Z,7.97
2023-01-17T16:33:42.294Z,13.85
2023-01-17T16:36:15.508Z,20.75
2023-01-17T16:38:45.584Z,14.30
2023-01-17T16:41:13.703Z,13.98
2023-01-17T16:43:42.141Z,10.88
2023-01-17T16:46:12.491Z,13.63
2023-01-17T16:48:41.020Z,15.15
2023-01-17T16:51:09.582Z,14.52
2023-01-17T16:53:38.994Z,21.10
2023-01-17T16:56:17.480Z,13.73
2023-01-17T16:58:48.279Z,13.13
2023-01-17T17:01:21.231Z,13.02
2023-01-17T17:03:49.932Z,17.02
2023-01-17T17:06:18.555Z,23.10
2023-01-17T17:08:47.847Z,17.13
2023-01-17T17:11:23.185Z,51.88
2023-01-17T17:13:52.440Z,41.40
2023-01-17T17:16:24.503Z,24.80
2023-01-17T17:18:59.178Z,24.05
2023-01-17T17:21:29.407Z,19.80
2023-01-17T17:24:00.391Z,14.60
2023-01-17T17:26:32.652Z,18.35
2023-01-17T17:29:02.174Z,10.95
2023-01-17T17:31:30.589Z,14.02
2023-01-17T17:34:01.622Z,16.30
2023-01-17T17:36:30.602Z,14.10
2023-01-17T17:38:59.546Z,17.08
2023-01-17T17:41:36.272Z,13.23
2023-01-17T17:44:05.486Z,9.07
2023-01-17T17:46:34.165Z,9.65
2023-01-17T17:49:02.634Z,9.32
2023-01-17T17:51:36.544Z,12.13
2023-01-17T17:54:07.668Z,45.13
2023-01-17T17:56:38.143Z,16.02
2023-01-17T17:59:09.439Z,12.02
2023-01-17T18:01:41.505Z,11.55
2023-01-17T18:04:10.147Z,12.70
2023-01-17T18:06:39.696Z,13.32
2023-01-17T18:09:10.216Z,15.60
2023-01-17T18:11:42.987Z,15.45
2023-01-17T18:14:14.902Z,23.55
2023-01-17T18:16:45.221Z,27.95
2023-01-17T18:19:24.377Z,30.98
2023-01-17T18:21:54.178Z,36.05
2023-01-17T18:24:24.333Z,29.42
2023-01-17T18:26:56.268Z,29.40
2023-01-17T18:29:26.360Z,58.75
2023-01-17T18:31:55.447Z,44.40
2023-01-17T18:34:30.269Z,35.17
2023-01-17T18:36:59.119Z,35.03
2023-01-17T18:39:29.880Z,29.50
2023-01-17T18:41:59.053Z,30.73
2023-01-17T18:47:04.876Z,26.75
2023-01-17T18:49:34.401Z,22.20
2023-01-17T18:52:02.694Z,19.88
2023-01-17T18:54:32.362Z,23.92
2023-01-17T18:57:00.650Z,21.65
2023-01-17T18:59:29.342Z,61.83
2023-01-17T19:01:59.205Z,54.97
2023-01-17T19:04:28.942Z,20.38
2023-01-17T19:06:57.090Z,9.18
2023-01-17T19:09:25.206Z,12.77
2023-01-17T19:11:53.194Z,13.13
2023-01-17T19:14:21.240Z,14.43
2023-01-17T19:16:49.179Z,17.67
2023-01-17T19:19:17.079Z,22.77
2023-01-17T19:21:45.081Z,31.17
2023-01-17T19:24:13.478Z,133.63
2023-01-17T19:26:42.411Z,46.55
2023-01-17T19:29:10.702Z,45.15
2023-01-17T19:31:43.139Z,49.33
2023-01-17T19:34:14.098Z,37.70
2023-01-17T19:36:42.818Z,36.60
2023-01-17T19:39:11.099Z,69.72
2023-01-17T19:41:44.019Z,35.30
2023-01-17T19:44:13.833Z,39.95
2023-01-17T19:46:41.939Z,39.33
2023-01-17T19:49:10.098Z,31.75
2023-01-17T19:51:39.882Z,33.80
2023-01-17T19:54:08.598Z,36.17
2023-01-17T19:56:36.983Z,33.67
2023-01-17T19:59:05.055Z,49.13
2023-01-17T20:01:34.507Z,38.17
2023-01-17T20:04:03.735Z,41.83
2023-01-17T20:06:34.835Z,37.40
2023-01-17T20:09:04.808Z,46.03
2023-01-17T20:11:33.120Z,46.20
2023-01-17T20:14:01.154Z,58.45
2023-01-17T20:16:31.219Z,29.90
2023-01-17T20:19:00.458Z,27.52
2023-01-17T20:21:30.576Z,39.28
2023-01-17T20:24:00.304Z,44.25
2023-01-17T20:26:35.023Z,72.18
2023-01-17T20:29:10.787Z,62.97
2023-01-17T20:31:41.751Z,46.25
2023-01-17T20:34:13.076Z,52.28
2023-01-17T20:36:42.303Z,50.90
2023-01-17T20:41:45.070Z,49.80
2023-01-17T20:44:15.672Z,52.40
2023-01-17T20:46:44.588Z,42.75
2023-01-17T20:49:19.186Z,42.72
2023-01-17T20:51:48.453Z,49.33
2023-01-17T20:54:18.622Z,45.22
2023-01-17T20:59:40.494Z,34.53
2023-01-17T21:04:52.561Z,24.05
2023-01-17T21:07:20.999Z,15.88
2023-01-17T21:09:49.376Z,14.40
2023-01-17T21:12:17.791Z,15.05
2023-01-17T21:14:45.756Z,13.18
2023-01-17T21:17:16.494Z,9.90
2023-01-17T21:19:44.557Z,12.20
2023-01-17T21:22:16.955Z,13.10
2023-01-17T21:24:44.860Z,13.38
2023-01-17T21:27:13.326Z,7.97
2023-01-17T21:29:41.805Z,7.78
2023-01-17T21:32:10.985Z,5.80
2023-01-17T21:34:39.447Z,5.80
2023-01-17T21:37:07.689Z,6.53
2023-01-17T21:39:35.926Z,4.28
2023-01-17T21:42:03.984Z,11.27
2023-01-17T21:44:36.486Z,8.90
2023-01-17T21:47:04.673Z,14.88
2023-01-17T21:49:32.796Z,7.05
2023-01-17T21:52:00.829Z,3.10
2023-01-17T21:54:49.116Z,6.32
2023-01-17T21:57:38.890Z,4.75
2023-01-17T22:00:10.815Z,4.28
2023-01-17T22:02:45.088Z,6.20
2023-01-17T22:05:14.414Z,9.45
2023-01-17T22:08:01.244Z,5.28
2023-01-17T22:10:29.645Z,7.45
2023-01-17T22:12:57.637Z,6.28
2023-01-17T22:15:25.970Z,4.80
2023-01-17T22:17:54.275Z,6.65
2023-01-17T22:20:22.479Z,6.50
2023-01-17T22:22:50.502Z,7.32
2023-01-17T22:25:18.411Z,7.78
2023-01-17T22:27:46.413Z,5.80
2023-01-17T22:30:14.537Z,9.05
2023-01-17T22:32:42.591Z,6.07
2023-01-17T22:35:10.460Z,5.40
2023-01-17T22:37:38.474Z,5.53
2023-01-17T22:40:07.190Z,6.82
2023-01-17T22:42:35.251Z,5.65
2023-01-17T22:45:03.442Z,7.05
2023-01-17T22:47:33.299Z,15.05
2023-01-17T22:50:01.147Z,6.78
2023-01-17T22:52:29.312Z,10.20
2023-01-17T22:54:57.237Z,5.53
2023-01-17T22:57:25.228Z,6.30
2023-01-17T22:59:53.273Z,6.75
2023-01-17T23:02:21.461Z,7.60
2023-01-17T23:04:49.505Z,7.93
2023-01-17T23:07:17.791Z,7.97
2023-01-17T23:09:45.830Z,14.73
2023-01-17T23:12:13.635Z,10.40
2023-01-17T23:15:03.358Z,9.88
2023-01-17T23:17:49.854Z,10.20
2023-01-17T23:20:17.689Z,6.68
2023-01-17T23:22:45.646Z,5.80
2023-01-17T23:25:14.380Z,5.82
2023-01-17T23:28:05.916Z,6.65
2023-01-17T23:30:36.993Z,7.70
2023-01-17T23:33:10.406Z,7.82
2023-01-17T23:35:43.406Z,5.38
2023-01-17T23:38:30.984Z,3.95
2023-01-17T23:41:23.011Z,3.63
2023-01-17T23:43:55.582Z,5.95
2023-01-17T23:46:25.557Z,8.00
2023-01-17T23:48:55.228Z,6.35
2023-01-17T23:51:23.201Z,7.40
2023-01-17T23:53:55.351Z,7.40
2023-01-17T23:56:27.157Z,7.50
2023-01-17T23:58:54.825Z,6.80
